createdAt,value
2022-08-25T00:03:24.609Z,8145.01416
2022-08-25T00:18:26.812Z,4934.68164
2022-08-25T00:33:29.159Z,8022.02734
2022-08-25T00:48:31.408Z,7939.61377
2022-08-25T01:03:35.820Z,3286.40674
2022-08-25T01:18:38.248Z,2384.927
2022-08-25T01:33:40.415Z,1631.79224
2022-08-25T01:48:42.919Z,1096.73682
2022-08-25T02:03:45.148Z,768.34973
2022-08-25T02:18:48.698Z,561.6814
2022-08-25T02:33:50.905Z,224.41898
2022-08-25T02:48:53.181Z,84.94955
2022-08-25T03:03:55.483Z,13.94694
2022-08-25T03:18:57.894Z,1.2679
2022-08-25T03:34:00.153Z,0
2022-08-25T03:49:02.463Z,0
2022-08-25T04:04:04.709Z,0
2022-08-25T04:19:06.958Z,0
2022-08-25T04:34:29.503Z,0
2022-08-25T04:49:33.658Z,0
2022-08-25T05:04:36.083Z,0
2022-08-25T05:19:38.411Z,0
2022-08-25T05:34:40.416Z,0
2022-08-25T05:49:42.875Z,0
2022-08-25T06:04:45.140Z,0
2022-08-25T06:19:47.320Z,0
2022-08-25T06:34:49.653Z,0
2022-08-25T06:49:51.750Z,0
2022-08-25T07:04:53.944Z,0
2022-08-25T07:19:57.514Z,0
2022-08-25T07:35:00.117Z,0
2022-08-25T07:50:03.786Z,0
2022-08-25T08:05:08.428Z,0
2022-08-25T08:20:12.024Z,0
2022-08-25T08:35:14.287Z,0
2022-08-25T08:50:20.331Z,0
2022-08-25T09:05:25.505Z,0
2022-08-25T09:20:27.592Z,0
2022-08-25T09:35:31.602Z,0
2022-08-25T09:50:35.086Z,0
2022-08-25T10:05:37.354Z,0
2022-08-25T10:20:44.699Z,0
2022-08-25T10:35:47.413Z,0
2022-08-25T10:50:49.615Z,0
2022-08-25T11:05:51.824Z,0
2022-08-25T11:20:54.058Z,0
2022-08-25T11:35:56.256Z,0
2022-08-25T11:50:59.005Z,0
2022-08-25T12:06:01.405Z,0
2022-08-25T12:21:03.755Z,1.2679
2022-08-25T12:36:05.934Z,10.14323
2022-08-25T12:51:08.111Z,78.61004
2022-08-25T13:06:10.337Z,193.98929
2022-08-25T13:21:14.223Z,327.11917
2022-08-25T13:36:16.420Z,486.87506
2022-08-25T13:51:18.620Z,760.74231
2022-08-25T14:06:23.600Z,1108.14795
2022-08-25T14:21:26.075Z,2136.41797
2022-08-25T14:36:28.306Z,4466.8252
2022-08-25T14:51:31.711Z,4115.61572
2022-08-25T15:06:34.041Z,6331.91162
2022-08-25T15:21:36.423Z,9464.90234
2022-08-25T15:36:38.628Z,12632.12598
2022-08-25T15:51:40.906Z,13917.78027
2022-08-25T16:06:43.117Z,14177.7002
2022-08-25T16:21:47.420Z,13879.74316
2022-08-25T16:36:51.901Z,13283.82812
2022-08-25T16:51:57.559Z,12369.66992
2022-08-25T17:07:00.462Z,12109.74902
2022-08-25T17:22:04.213Z,10727.73438
2022-08-25T17:37:08.850Z,10253.53809
2022-08-25T17:52:11.209Z,9311.48535
2022-08-25T18:07:13.400Z,8943.79297
2022-08-25T18:22:15.597Z,9180.8916
2022-08-25T18:37:18.114Z,9599.2998
2022-08-25T18:52:20.330Z,8186.85498
2022-08-25T19:07:24.235Z,7770.98242
2022-08-25T19:22:40.723Z,5748.67578
2022-08-25T19:37:43.831Z,7333.55566
2022-08-25T19:52:46.033Z,5831.08936
2022-08-25T20:07:52.189Z,6969.66699
2022-08-25T20:22:54.542Z,4904.25195
2022-08-25T20:37:57.059Z,5235.1748
2022-08-25T20:52:59.415Z,8999.58105
2022-08-25T21:08:03.251Z,5770.22998
2022-08-25T21:23:05.694Z,8960.27637
2022-08-25T21:38:08.408Z,4192.95801
2022-08-25T21:53:11.449Z,2950.41211
2022-08-25T22:08:13.815Z,2242.92188
2022-08-25T22:23:20.149Z,2430.57153
2022-08-25T22:38:22.694Z,3545.05908
2022-08-25T22:53:25.266Z,4049.68481
2022-08-25T23:08:40.708Z,5072.8833
2022-08-25T23:23:43.440Z,5114.72412
2022-08-25T23:38:45.934Z,8384.64746
2022-08-25T23:53:54.141Z,10235.78711
